Time;durP1;ratioP1;P1;durP2;ratioP2;P2;SDS_P1;SDS_P2;PMS_P1;PMS_P2;Temp;Humidity;BMP_temperature;BMP_pressure;BME280_temperature;BME280_humidity;BME280_pressure;Samples;Min_cycle;Max_cycle;Signal;HPM_P1;HPM_P2
2022/09/01 00:02:15;;;;;;;8.78;5.70;;;;;;;18.06;59.76;100418.61;1724238;83;21243;-54
2022/09/01 00:05:22;;;;;;;9.30;5.80;;;;;;;18.02;59.83;100419.28;1724141;83;21231;-55
2022/09/01 00:08:29;;;;;;;9.23;5.70;;;;;;;17.98;59.93;100429.98;1724218;83;21215;-55
2022/09/01 00:11:35;;;;;;;11.05;5.35;;;;;;;17.93;59.96;100431.19;1724253;83;21200;-56
2022/09/01 00:14:45;;;;;;;8.70;5.35;;;;;;;17.89;60.04;100428.00;1697696;83;21697;-56
2022/09/01 00:17:51;;;;;;;10.78;5.50;;;;;;;17.80;60.03;100431.25;1724226;83;21251;-53
2022/09/01 00:20:58;;;;;;;8.45;5.12;;;;;;;17.74;60.14;100434.35;1724142;83;21199;-54
2022/09/01 00:24:04;;;;;;;8.80;6.03;;;;;;;17.67;60.25;100432.17;1724113;83;21222;-54
2022/09/01 00:27:09;;;;;;;8.75;5.08;;;;;;;17.65;60.39;100430.15;1724109;83;21283;-54
2022/09/01 00:30:16;;;;;;;9.73;5.45;;;;;;;17.64;60.51;100441.45;1724180;83;21239;-54
2022/09/01 00:33:22;;;;;;;10.10;5.17;;;;;;;17.60;60.55;100443.80;1724301;83;21275;-54
2022/09/01 00:36:30;;;;;;;7.05;4.97;;;;;;;17.56;60.63;100441.17;1724266;83;21267;-55
2022/09/01 00:39:35;;;;;;;9.75;4.95;;;;;;;17.55;60.74;100446.92;1724193;83;21255;-54
2022/09/01 00:42:43;;;;;;;7.80;4.70;;;;;;;17.52;60.77;100445.98;1724683;80;21219;-54
2022/09/01 00:45:50;;;;;;;10.40;5.97;;;;;;;17.47;60.80;100447.17;1724269;83;21251;-55
2022/09/01 00:49:08;;;;;;;7.95;5.08;;;;;;;17.42;60.88;100442.78;1724230;83;21255;-55
2022/09/01 00:52:24;;;;;;;6.87;5.00;;;;;;;17.38;60.94;100444.27;1724350;83;21242;-55
2022/09/01 00:55:35;;;;;;;7.08;4.92;;;;;;;17.34;61.01;100443.02;1723940;83;21227;-55
2022/09/01 00:58:37;;;;;;;6.83;4.95;;;;;;;17.29;61.14;100440.92;1724047;83;21195;-54
2022/09/01 01:01:44;;;;;;;7.78;5.55;;;;;;;17.25;61.18;100446.55;1697619;83;21199;-55
2022/09/01 01:04:51;;;;;;;7.95;4.97;;;;;;;17.20;61.21;100444.14;1724255;83;21259;-55
2022/09/01 01:07:58;;;;;;;8.38;4.83;;;;;;;17.13;61.27;100444.15;1724217;83;21203;-54
2022/09/01 01:11:09;;;;;;;11.68;5.28;;;;;;;17.06;61.31;100443.30;1724296;83;21216;-54
2022/09/01 01:14:18;;;;;;;9.73;6.10;;;;;;;17.00;61.42;100440.58;1724248;83;21862;-55
2022/09/01 01:17:27;;;;;;;7.95;5.42;;;;;;;16.97;61.56;100445.12;1724244;83;21227;-53
2022/09/01 01:24:06;;;;;;;9.88;5.55;;;;;;;16.89;61.73;100448.13;1724180;83;21259;-55
2022/09/01 01:27:12;;;;;;;9.83;5.28;;;;;;;16.87;61.83;100442.80;1724309;83;21263;-54
2022/09/01 01:30:19;;;;;;;10.80;5.40;;;;;;;16.82;61.88;100444.53;1724229;83;21199;-54
2022/09/01 01:33:19;;;;;;;11.00;5.37;;;;;;;16.78;61.96;100441.86;1723510;83;21243;-54
2022/09/01 01:36:37;;;;;;;11.45;5.47;;;;;;;16.77;62.03;100442.94;1724058;83;21251;-55
2022/09/01 01:39:43;;;;;;;10.23;5.55;;;;;;;16.72;62.07;100450.50;1723026;83;21200;-54
2022/09/01 01:42:56;;;;;;;11.55;5.42;;;;;;;16.68;62.18;100440.08;1724212;81;21250;-55
2022/09/01 01:46:04;;;;;;;6.72;4.53;;;;;;;16.65;62.21;100443.28;1722146;83;21232;-54
2022/09/01 01:49:12;;;;;;;8.23;5.33;;;;;;;16.58;62.23;100443.28;1722171;82;21256;-53
2022/09/01 01:52:20;;;;;;;8.33;4.80;;;;;;;16.53;62.36;100437.53;1722339;82;21247;-54
2022/09/01 01:55:29;;;;;;;8.35;5.78;;;;;;;16.50;62.46;100441.25;1722180;83;21251;-54
2022/09/01 01:58:34;;;;;;;8.40;5.95;;;;;;;16.46;62.53;100433.08;1722142;82;21200;-53
2022/09/01 02:01:42;;;;;;;10.08;5.87;;;;;;;16.44;62.66;100429.98;1722131;83;21350;-53
2022/09/01 02:04:48;;;;;;;9.33;6.00;;;;;;;16.46;62.67;100443.58;1722145;83;21212;-53
2022/09/01 02:07:58;;;;;;;8.00;5.08;;;;;;;16.38;62.61;100439.61;1722187;82;21231;-53
2022/09/01 02:11:05;;;;;;;9.20;5.80;;;;;;;16.32;62.65;100436.31;1722133;83;21271;-54
2022/09/01 02:14:14;;;;;;;9.35;5.40;;;;;;;16.28;62.75;100437.27;1722211;82;21271;-54
2022/09/01 02:17:22;;;;;;;6.58;5.10;;;;;;;16.24;62.79;100434.63;1722064;82;21223;-54
2022/09/01 02:20:28;;;;;;;7.95;5.12;;;;;;;16.21;62.86;100435.56;1722142;83;21240;-54
2022/09/01 02:23:37;;;;;;;8.18;5.50;;;;;;;16.16;62.94;100443.11;1722330;82;21267;-54
2022/09/01 02:26:48;;;;;;;9.13;5.40;;;;;;;16.14;63.03;100435.55;1722156;83;21270;-56
2022/09/01 02:29:54;;;;;;;8.55;5.65;;;;;;;16.10;63.06;100443.95;1722163;83;21255;-56
2022/09/01 02:33:00;;;;;;;8.30;5.05;;;;;;;16.06;63.14;100440.45;1722133;82;21279;-54
2022/09/01 02:36:12;;;;;;;8.93;5.20;;;;;;;16.04;63.28;100440.66;1722198;83;21370;-55
2022/09/01 02:39:22;;;;;;;9.70;5.30;;;;;;;16.02;63.35;100441.91;1703705;83;21239;-56
2022/09/01 02:42:29;;;;;;;8.00;5.75;;;;;;;16.01;63.43;100439.70;1722213;82;21227;-54
2022/09/01 02:45:36;;;;;;;10.55;5.35;;;;;;;15.99;63.57;100439.05;1718896;83;21216;-55
2022/09/01 02:48:44;;;;;;;9.48;6.05;;;;;;;16.00;63.66;100440.73;1704348;83;21235;-55
2022/09/01 02:51:48;;;;;;;11.35;6.62;;;;;;;15.99;63.69;100440.43;1722207;83;21180;-55
2022/09/01 02:54:44;;;;;;;11.97;6.58;;;;;;;15.99;63.75;100453.38;1722239;83;21263;-55
2022/09/01 02:57:49;;;;;;;10.03;5.93;;;;;;;15.95;63.72;100451.55;1722470;82;21373;-53
2022/09/01 03:01:00;;;;;;;10.88;6.20;;;;;;;15.85;63.61;100451.13;1722218;83;22048;-55
2022/09/01 03:04:10;;;;;;;10.18;5.58;;;;;;;15.78;63.65;100453.52;1722462;82;21240;-54
2022/09/01 03:07:22;;;;;;;12.58;5.37;;;;;;;15.74;63.77;100455.87;1722069;82;21215;-54
2022/09/01 03:10:30;;;;;;;9.70;5.40;;;;;;;15.71;63.90;100470.09;1722144;83;21200;-55
2022/09/01 03:13:35;;;;;;;8.45;5.05;;;;;;;15.72;64.00;100473.16;1722079;82;21224;-54
2022/09/01 03:16:44;;;;;;;11.03;5.33;;;;;;;15.70;63.99;100475.78;1722148;83;21223;-58
2022/09/01 03:19:50;;;;;;;9.38;5.20;;;;;;;15.67;63.98;100476.20;1722119;83;21180;-57
2022/09/01 03:22:58;;;;;;;9.73;5.25;;;;;;;15.64;64.00;100474.72;1722199;81;21790;-57
2022/09/01 03:26:04;;;;;;;9.63;4.95;;;;;;;15.63;64.11;100481.31;1722108;83;21227;-59
2022/09/01 03:29:10;;;;;;;9.68;6.05;;;;;;;15.63;64.25;100482.69;1722119;82;21243;-58
2022/09/01 03:32:18;;;;;;;8.73;4.60;;;;;;;15.64;64.29;100482.13;1722122;82;21303;-58
2022/09/01 03:35:24;;;;;;;7.90;5.25;;;;;;;15.62;64.24;100487.03;1722182;83;21220;-58
2022/09/01 03:38:32;;;;;;;10.78;4.70;;;;;;;15.62;64.37;100487.03;1721634;82;21291;-58
2022/09/01 03:41:37;;;;;;;8.40;5.00;;;;;;;15.63;64.45;100500.63;1722974;82;21244;-59
2022/09/01 03:44:43;;;;;;;10.15;5.08;;;;;;;15.64;64.49;100500.94;1722559;80;21318;-58
2022/09/01 03:47:51;;;;;;;9.00;5.17;;;;;;;15.66;64.56;100496.59;1714487;83;21219;-58
2022/09/01 03:51:02;;;;;;;9.80;4.80;;;;;;;15.65;64.62;100497.11;1670598;86;21803;-57
2022/09/01 03:54:09;;;;;;;8.93;5.60;;;;;;;15.67;64.69;100500.52;1670598;85;21289;-58
2022/09/01 03:57:15;;;;;;;7.45;5.30;;;;;;;15.68;64.72;100505.52;1670912;85;21254;-59
2022/09/01 04:00:28;;;;;;;8.98;5.45;;;;;;;15.71;64.83;100510.11;1670859;86;21263;-58
2022/09/01 04:03:34;;;;;;;7.90;5.20;;;;;;;15.75;64.92;100505.00;1637908;87;21242;-57
2022/09/01 04:06:46;;;;;;;8.48;5.03;;;;;;;15.76;64.95;100504.80;1671064;86;21191;-57
2022/09/01 04:09:52;;;;;;;8.83;5.40;;;;;;;15.80;65.00;100510.77;1649668;86;21219;-57
2022/09/01 04:12:58;;;;;;;7.35;5.17;;;;;;;15.80;65.04;100513.00;1670535;85;21270;-57
2022/09/01 04:18:03;;;;;;;7.87;5.05;;;;;;;15.84;65.11;100517.04;1647328;86;21864;-58
2022/09/01 04:19:24;;;;;;;12.40;4.78;;;;;;;15.86;65.13;100519.08;1670799;85;21207;-59
2022/09/01 04:22:30;;;;;;;9.00;4.78;;;;;;;15.87;65.16;100516.62;1638310;87;21412;-59
2022/09/01 04:25:37;;;;;;;8.08;4.78;;;;;;;15.91;65.23;100517.06;1671139;85;21395;-59
2022/09/01 04:28:47;;;;;;;7.80;4.75;;;;;;;15.93;65.26;100517.20;1671214;85;21271;-58
2022/09/01 04:31:52;;;;;;;12.80;5.53;;;;;;;15.95;65.33;100515.06;1671285;86;21259;-57
2022/09/01 04:35:01;;;;;;;10.50;5.10;;;;;;;16.01;65.43;100511.50;1638315;87;21218;-59
2022/09/01 04:38:08;;;;;;;6.28;4.70;;;;;;;16.05;65.44;100518.81;1670591;85;21254;-57
2022/09/01 04:41:16;;;;;;;11.35;4.83;;;;;;;16.06;65.45;100513.63;1638141;87;21210;-58
2022/09/01 04:44:27;;;;;;;6.45;4.53;;;;;;;16.08;65.47;100511.48;1649079;86;21454;-58
2022/09/01 04:47:36;;;;;;;7.67;4.55;;;;;;;16.08;65.50;100508.20;1664458;82;21798;-57
2022/09/01 04:50:48;;;;;;;7.47;4.30;;;;;;;16.12;65.60;100509.51;1664664;85;21380;-57
2022/09/01 04:53:56;;;;;;;5.80;4.28;;;;;;;16.19;65.72;100503.97;1703618;83;21291;-59
2022/09/01 04:57:05;;;;;;;10.32;4.55;;;;;;;16.30;65.79;100510.27;1665718;85;21226;-58
2022/09/01 05:00:21;;;;;;;6.65;4.67;;;;;;;16.38;65.90;100508.16;1716765;83;21212;-58
2022/09/01 05:03:24;;;;;;;10.63;4.17;;;;;;;16.48;65.92;100502.26;1697511;83;21251;-56
2022/09/01 05:06:33;;;;;;;10.58;4.12;;;;;;;16.58;65.97;100506.85;1695794;83;21242;-53
2022/09/01 05:09:41;;;;;;;9.48;3.85;;;;;;;16.70;66.05;100505.70;1636854;86;21282;-58
2022/09/01 05:13:00;;;;;;;6.42;3.98;;;;;;;16.81;66.08;100508.65;1697775;84;21239;-58
2022/09/01 05:16:13;;;;;;;4.53;3.77;;;;;;;16.93;66.09;100506.10;1669067;86;21251;-55
2022/09/01 05:19:23;;;;;;;7.22;3.90;;;;;;;17.01;66.11;100510.89;1668387;86;21882;-53
2022/09/01 05:22:32;;;;;;;6.42;3.90;;;;;;;17.11;66.12;100504.92;1689968;83;21245;-54
2022/09/01 05:25:40;;;;;;;10.13;3.35;;;;;;;17.20;66.12;100506.39;1707546;83;21235;-54
2022/09/01 05:28:49;;;;;;;5.10;3.60;;;;;;;17.29;66.18;100509.23;1668504;86;21246;-53
2022/09/01 05:31:56;;;;;;;5.45;3.02;;;;;;;17.39;66.19;100508.27;1693511;83;21621;-53
2022/09/01 05:35:05;;;;;;;8.15;3.50;;;;;;;17.49;66.19;100510.92;1665321;85;21214;-54
2022/09/01 05:38:11;;;;;;;10.35;3.27;;;;;;;17.58;66.19;100503.23;1714415;83;21216;-53
2022/09/01 05:41:19;;;;;;;8.95;3.30;;;;;;;17.66;66.17;100502.44;1648008;85;21790;-53
2022/09/01 05:44:26;;;;;;;7.95;3.30;;;;;;;17.76;66.22;100502.84;1693990;83;21225;-53
2022/09/01 05:47:35;;;;;;;6.92;3.12;;;;;;;17.88;66.22;100515.47;1705040;79;21278;-53
2022/09/01 05:50:42;;;;;;;5.53;3.30;;;;;;;17.98;66.20;100517.77;1710258;83;21215;-53
2022/09/01 05:53:50;;;;;;;4.62;2.95;;;;;;;18.05;66.17;100520.82;1696853;84;21235;-55
2022/09/01 05:56:57;;;;;;;8.78;2.65;;;;;;;18.12;66.12;100512.47;1663838;86;21356;-54
2022/09/01 06:00:09;;;;;;;5.85;2.60;;;;;;;18.20;66.10;100512.22;1663303;86;21238;-55
2022/09/01 06:03:13;;;;;;;5.20;2.58;;;;;;;18.26;66.06;100508.03;1693750;84;21250;-54
2022/09/01 06:06:21;;;;;;;3.87;2.50;;;;;;;18.33;66.01;100510.20;1698091;83;21349;-55
2022/09/01 06:09:30;;;;;;;3.65;2.37;;;;;;;18.39;65.99;100513.53;1697668;83;21249;-54
2022/09/01 06:12:36;;;;;;;3.75;2.30;;;;;;;18.46;65.96;100513.45;1697778;84;21268;-55
2022/09/01 06:15:46;;;;;;;4.42;2.50;;;;;;;18.53;65.94;100515.13;1695276;84;21304;-55
2022/09/01 06:18:56;;;;;;;2.37;1.92;;;;;;;18.60;65.90;100511.76;1661789;86;21244;-55
2022/09/01 06:22:04;;;;;;;6.00;2.12;;;;;;;18.67;65.89;100517.25;1697441;84;21243;-55
2022/09/01 06:25:11;;;;;;;3.02;1.70;;;;;;;18.76;65.92;100514.52;1692105;84;21263;-55
2022/09/01 06:28:20;;;;;;;3.35;1.40;;;;;;;18.85;65.84;100520.11;1674858;84;21226;-55
2022/09/01 06:31:37;;;;;;;4.00;1.75;;;;;;;18.92;65.70;100531.45;1664107;86;21266;-55
2022/09/01 06:34:51;;;;;;;2.05;1.40;;;;;;;19.00;65.63;100513.67;1698891;84;21850;-55
2022/09/01 06:38:03;;;;;;;3.30;1.40;;;;;;;19.07;65.56;100509.78;1663427;86;21274;-56
2022/09/01 06:41:19;;;;;;;6.62;1.60;;;;;;;19.16;65.52;100513.09;1697702;84;21223;-55
2022/09/01 06:44:30;;;;;;;4.20;1.50;;;;;;;19.23;65.36;100507.78;1697360;83;21227;-55
2022/09/01 06:47:39;;;;;;;8.53;1.52;;;;;;;19.33;65.28;100507.84;1669101;85;22035;-55
2022/09/01 06:50:45;;;;;;;2.67;1.47;;;;;;;19.39;65.16;100505.53;1693619;84;21267;-54
2022/09/01 06:53:58;;;;;;;3.10;1.30;;;;;;;19.45;65.02;100514.33;1696932;84;21272;-57
2022/09/01 06:57:07;;;;;;;5.65;1.32;;;;;;;19.48;64.92;100517.50;1669770;86;21227;-56
2022/09/01 07:00:22;;;;;;;4.05;1.60;;;;;;;19.54;64.84;100518.48;1639709;86;21786;-58
2022/09/01 07:03:30;;;;;;;3.40;1.60;;;;;;;19.61;64.81;100516.50;1696842;84;21263;-52
2022/09/01 07:06:38;;;;;;;3.90;1.70;;;;;;;19.68;64.75;100511.73;1696618;84;21267;-56
2022/09/01 07:09:49;;;;;;;5.90;1.72;;;;;;;19.76;64.68;100516.95;1694586;84;21348;-54
2022/09/01 07:13:06;;;;;;;2.42;1.37;;;;;;;19.83;64.61;100515.81;1698339;84;21884;-55
2022/09/01 07:16:21;;;;;;;4.37;1.62;;;;;;;19.91;64.56;100521.59;1697633;84;21244;-55
2022/09/01 07:19:47;;;;;;;2.50;1.70;;;;;;;19.98;64.50;100517.63;1648310;86;21759;-55
2022/09/01 07:22:55;;;;;;;4.28;1.50;;;;;;;20.08;64.45;100522.63;1684000;84;21262;-55
2022/09/01 07:26:05;;;;;;;1.95;1.50;;;;;;;20.17;64.35;100522.67;1697855;84;21259;-55
2022/09/01 07:29:20;;;;;;;2.95;1.70;;;;;;;20.21;64.23;100520.58;1696985;84;21322;-55
2022/09/01 07:32:26;;;;;;;4.10;1.50;;;;;;;20.28;64.17;100516.31;1697003;84;21283;-56
2022/09/01 07:35:37;;;;;;;3.15;1.40;;;;;;;20.32;64.07;100520.31;1701169;83;21323;-56
2022/09/01 07:38:52;;;;;;;2.45;1.30;;;;;;;20.39;63.99;100516.34;1697074;83;21737;-54
2022/09/01 07:41:57;;;;;;;3.70;1.30;;;;;;;20.46;63.98;100516.24;1662505;86;21221;-56
2022/09/01 07:45:24;;;;;;;3.75;1.85;;;;;;;20.54;63.83;100513.12;1697651;84;21240;-55
2022/09/01 07:48:30;;;;;;;3.77;1.77;;;;;;;20.55;63.68;100515.67;1697373;83;21311;-58
2022/09/01 07:51:38;;;;;;;2.20;1.17;;;;;;;20.61;63.64;100515.28;1745748;81;21757;-57
2022/09/01 07:54:47;;;;;;;5.72;1.30;;;;;;;20.70;63.53;100519.41;1747310;82;21197;-56
2022/09/01 07:57:54;;;;;;;2.37;1.12;;;;;;;20.75;63.30;100519.55;1747447;82;21208;-57
2022/09/01 08:01:02;;;;;;;1.75;1.02;;;;;;;20.79;63.17;100512.41;1743583;82;21244;-55
2022/09/01 08:04:21;;;;;;;2.60;1.30;;;;;;;20.87;63.06;100510.66;1740594;82;21588;-56
2022/09/01 08:07:33;;;;;;;3.08;1.30;;;;;;;21.00;62.94;100505.45;1745480;82;21785;-56
2022/09/01 08:10:48;;;;;;;2.98;1.40;;;;;;;21.15;62.82;100509.48;1727596;81;21774;-55
2022/09/01 08:13:59;;;;;;;5.80;2.08;;;;;;;21.28;62.58;100509.22;1745826;82;21236;-57
2022/09/01 08:17:04;;;;;;;1.65;1.10;;;;;;;21.41;62.42;100504.80;1727583;82;21206;-56
2022/09/01 08:20:15;;;;;;;3.77;1.20;;;;;;;21.45;62.14;100497.66;1738537;81;21699;-55
2022/09/01 08:23:26;;;;;;;2.77;1.35;;;;;;;21.56;61.97;100499.59;1745899;80;21220;-56
2022/09/01 08:26:36;;;;;;;;;;;;;;;21.66;61.78;100507.33;1708016;84;21207;-54
2022/09/01 08:29:47;;;;;;;3.12;1.20;;;;;;;21.70;61.61;100494.05;1677353;84;20246;-57
2022/09/01 08:32:56;;;;;;;2.37;1.30;;;;;;;21.71;61.44;100498.52;1673341;85;21244;-56
2022/09/01 08:36:10;;;;;;;1.15;1.05;;;;;;;21.70;61.21;100500.16;1719855;83;21236;-55
2022/09/01 08:39:16;;;;;;;2.72;1.15;;;;;;;21.78;61.10;100496.48;1707616;83;21232;-55
2022/09/01 08:42:40;;;;;;;8.43;1.60;;;;;;;21.92;60.95;100493.72;1707910;82;21806;-55
2022/09/01 08:46:02;;;;;;;6.45;1.70;;;;;;;22.09;60.82;100492.38;1707828;84;21208;-56
2022/09/01 08:49:16;;;;;;;3.70;1.30;;;;;;;22.22;60.61;100501.84;1683208;84;21431;-56
2022/09/01 08:52:40;;;;;;;10.00;1.60;;;;;;;22.23;60.15;100492.94;1694095;83;21809;-57
2022/09/01 08:55:54;;;;;;;5.40;1.30;;;;;;;22.18;59.92;100491.73;1694839;84;21212;-55
2022/09/01 08:59:00;;;;;;;4.35;1.20;;;;;;;22.17;59.77;100492.84;1696179;84;21752;-55
2022/09/01 09:02:38;;;;;;;6.57;1.37;;;;;;;22.20;59.69;100497.06;1694199;84;21838;-56
2022/09/01 09:06:17;;;;;;;3.87;1.47;;;;;;;22.33;59.54;100501.48;1703035;83;21198;-55
2022/09/01 09:09:23;;;;;;;1.32;1.00;;;;;;;22.40;59.23;100486.31;1710985;84;21735;-57
2022/09/01 09:13:01;;;;;;;3.12;1.22;;;;;;;22.48;58.91;100488.70;1692632;84;21735;-56
2022/09/01 09:16:26;;;;;;;2.65;1.00;;;;;;;22.56;58.73;100508.41;1696823;84;21225;-55
2022/09/01 09:19:41;;;;;;;4.62;1.40;;;;;;;22.47;58.41;100508.48;1619519;87;21223;-57
2022/09/01 09:22:49;;;;;;;3.70;1.32;;;;;;;22.45;58.37;100496.72;1698261;84;21271;-57
2022/09/01 09:25:57;;;;;;;1.77;1.02;;;;;;;22.51;58.21;100495.71;1697920;84;21717;-57
2022/09/01 09:29:04;;;;;;;0.93;0.80;;;;;;;22.57;57.95;100501.17;1669705;86;21250;-55
2022/09/01 09:32:13;;;;;;;5.92;1.40;;;;;;;22.61;57.76;100496.77;1692627;84;21215;-59
2022/09/01 09:35:31;;;;;;;2.37;1.20;;;;;;;22.71;57.64;100500.30;1696978;83;21274;-57
2022/09/01 09:38:37;;;;;;;6.60;1.35;;;;;;;22.80;57.51;100491.82;1693871;84;21231;-58
2022/09/01 09:41:46;;;;;;;2.98;1.20;;;;;;;22.93;57.37;100493.72;1697500;83;21709;-57
2022/09/01 09:44:55;;;;;;;2.12;1.00;;;;;;;22.97;57.18;100490.73;1699228;83;21230;-55
2022/09/01 09:48:01;;;;;;;2.72;1.07;;;;;;;23.03;56.97;100493.04;1697836;84;21293;-58
2022/09/01 09:51:29;;;;;;;2.52;1.30;;;;;;;23.14;56.78;100496.30;1700460;82;21789;-58
2022/09/01 09:54:36;;;;;;;2.40;1.17;;;;;;;23.20;56.51;100495.27;1723382;82;21211;-55
2022/09/01 09:57:46;;;;;;;3.72;1.35;;;;;;;23.33;56.39;100488.82;1721921;83;21752;-56
2022/09/01 10:01:06;;;;;;;3.65;1.20;;;;;;;23.44;56.10;100491.20;1684748;85;21598;-56
2022/09/01 10:04:15;;;;;;;3.55;1.25;;;;;;;23.44;55.78;100493.45;1685571;85;21748;-57
2022/09/01 10:07:44;;;;;;;2.77;1.10;;;;;;;23.37;55.54;100491.95;1678475;85;21298;-57
2022/09/01 10:10:57;;;;;;;1.72;1.20;;;;;;;23.31;55.38;100493.81;1662883;85;21591;-58
2022/09/01 10:14:03;;;;;;;4.03;1.17;;;;;;;23.28;55.25;100499.06;1692978;84;21764;-58
2022/09/01 10:17:27;;;;;;;4.42;1.20;;;;;;;23.22;55.11;100500.91;1676434;85;21267;-58
2022/09/01 10:20:34;;;;;;;2.00;1.30;;;;;;;23.22;55.00;100494.47;1650357;86;21592;-58
2022/09/01 10:23:42;;;;;;;1.85;1.10;;;;;;;23.41;55.03;100490.33;1710574;83;21204;-59
2022/09/01 10:26:50;;;;;;;2.15;1.37;;;;;;;23.60;54.77;100477.20;1719114;83;21235;-56
2022/09/01 10:30:15;;;;;;;3.15;1.30;;;;;;;23.67;54.40;100478.42;1679408;83;21205;-58
2022/09/01 10:33:23;;;;;;;1.72;1.10;;;;;;;23.81;54.22;100480.27;1693966;83;21226;-58
2022/09/01 10:36:32;;;;;;;2.85;1.20;;;;;;;23.93;53.91;100473.43;1707222;83;21212;-58
2022/09/01 10:39:40;;;;;;;2.30;1.20;;;;;;;24.06;53.79;100477.81;1676990;85;21547;-58
2022/09/01 10:42:54;;;;;;;4.95;1.70;;;;;;;24.10;53.39;100482.62;1675173;85;21215;-57
2022/09/01 10:45:57;;;;;;;3.10;1.22;;;;;;;23.99;53.15;100483.60;1717506;82;21214;-54
2022/09/01 10:49:36;;;;;;;3.37;1.20;;;;;;;23.94;53.06;100477.94;1686171;82;21767;-55
2022/09/01 10:52:55;;;;;;;1.50;1.15;;;;;;;24.02;52.98;100491.50;1714150;81;21209;-55
2022/09/01 10:56:30;;;;;;;2.15;1.12;;;;;;;24.03;52.72;100480.59;1705316;84;21255;-55
2022/09/01 10:59:38;;;;;;;4.15;1.12;;;;;;;24.03;52.56;100480.59;1737462;81;21221;-56
2022/09/01 11:02:46;;;;;;;3.87;1.35;;;;;;;24.04;52.34;100464.66;1738223;82;21583;-57
2022/09/01 11:06:06;;;;;;;5.95;1.40;;;;;;;24.20;52.25;100470.16;1710828;84;21206;-54
2022/09/01 11:09:32;;;;;;;2.30;1.10;;;;;;;24.26;51.93;100473.30;1735454;82;21212;-55
2022/09/01 11:12:50;;;;;;;1.82;0.80;;;;;;;24.14;51.62;100459.17;1729856;82;21245;-56
2022/09/01 11:16:06;;;;;;;3.75;2.30;;;;;;;24.08;51.45;100468.61;1728706;82;21589;-57
2022/09/01 11:20:05;;;;;;;5.90;1.47;;;;;;;24.12;51.33;100455.23;1827571;76;22861;-56
2022/09/01 11:27:49;;;;;;;3.50;1.10;;;;;;;23.96;50.87;100472.08;1756375;79;21200;-56
2022/09/01 11:31:49;;;;;;;5.30;1.22;;;;;;;23.82;50.79;100470.21;1785686;79;21224;-55
2022/09/01 11:34:56;;;;;;;2.70;1.50;;;;;;;23.74;50.66;100470.66;1757350;81;21181;-54
2022/09/01 11:38:08;;;;;;;3.00;1.12;;;;;;;23.85;50.58;100468.30;1808740;79;21742;-55
2022/09/01 11:41:15;;;;;;;3.67;1.80;;;;;;;23.97;50.39;100469.60;1796817;79;21761;-55
2022/09/01 11:44:58;;;;;;;5.58;1.20;;;;;;;23.94;50.10;100473.75;1795143;79;21193;-55
2022/09/01 11:48:15;;;;;;;6.78;1.47;;;;;;;23.93;49.88;100476.23;1769772;80;21194;-57
2022/09/01 11:51:23;;;;;;;4.75;1.45;;;;;;;24.05;49.79;100465.80;1733470;82;21149;-57
2022/09/01 11:54:30;;;;;;;4.08;1.30;;;;;;;24.10;49.55;100478.42;1721812;83;21202;-57
2022/09/01 11:57:43;;;;;;;7.67;1.40;;;;;;;24.06;49.28;100465.22;1768298;80;21213;-58
2022/09/01 12:00:49;;;;;;;5.75;2.25;;;;;;;23.97;49.05;100459.27;1725011;81;21181;-57
2022/09/01 12:03:57;;;;;;;2.75;1.20;;;;;;;23.94;49.02;100454.17;1788603;79;21761;-57
2022/09/01 12:07:12;;;;;;;3.10;1.25;;;;;;;23.98;48.86;100458.69;1782372;79;21179;-57
2022/09/01 12:10:33;;;;;;;6.12;1.62;;;;;;;23.94;48.75;100449.12;1788595;79;21694;-58
2022/09/01 12:13:39;;;;;;;4.87;3.55;;;;;;;23.92;48.54;100445.19;1784136;79;21175;-57
2022/09/01 12:16:47;;;;;;;3.30;2.15;;;;;;;23.94;48.38;100444.37;1782994;79;21375;-58
2022/09/01 12:19:54;;;;;;;2.87;1.70;;;;;;;23.87;48.15;100445.12;1782757;79;21206;-58
2022/09/01 12:23:01;;;;;;;11.20;5.75;;;;;;;23.92;48.22;100447.98;1788969;79;21212;-56
2022/09/01 12:26:17;;;;;;;10.08;3.00;;;;;;;24.01;48.06;100454.83;1775370;79;21187;-56
2022/09/01 12:29:25;;;;;;;7.97;2.15;;;;;;;24.05;47.93;100455.16;1795986;79;21173;-57
2022/09/01 12:32:34;;;;;;;13.55;2.62;;;;;;;24.01;47.78;100447.83;1803758;79;21382;-57
2022/09/01 12:35:42;;;;;;;7.30;2.42;;;;;;;23.99;47.67;100461.23;1776468;79;21252;-54
2022/09/01 12:38:50;;;;;;;2.98;1.75;;;;;;;23.93;47.46;100446.04;1761674;81;21288;-58
2022/09/01 12:42:13;;;;;;;5.25;3.08;;;;;;;23.89;47.34;100444.86;1761404;81;21205;-58
2022/09/01 12:45:19;;;;;;;5.72;2.10;;;;;;;23.85;47.23;100447.89;1762128;79;21197;-57
2022/09/01 12:48:45;;;;;;;2.80;1.60;;;;;;;23.68;46.94;100445.15;1810882;77;21259;-56
2022/09/01 12:51:51;;;;;;;5.17;1.60;;;;;;;23.48;46.85;100435.93;1701815;82;21228;-58
2022/09/01 12:55:08;;;;;;;5.05;1.47;;;;;;;23.45;46.82;100453.22;1731517;82;21778;-57
2022/09/01 12:58:15;;;;;;;3.45;1.32;;;;;;;23.41;46.73;100438.62;1741118;82;21208;-53
2022/09/01 13:01:34;;;;;;;1.72;1.47;;;;;;;23.42;46.61;100431.95;1736979;81;21172;-54
2022/09/01 13:04:40;;;;;;;3.10;1.27;;;;;;;23.52;46.57;100426.48;1732551;82;21189;-54
2022/09/01 13:07:46;;;;;;;5.58;1.30;;;;;;;23.61;46.43;100434.70;1786961;79;21224;-55
2022/09/01 13:11:00;;;;;;;2.45;1.15;;;;;;;23.71;46.25;100434.84;1801642;79;21244;-55
2022/09/01 13:14:07;;;;;;;1.30;1.02;;;;;;;23.76;46.05;100434.91;1787456;79;21358;-53
2022/09/01 13:17:12;;;;;;;9.43;6.40;;;;;;;23.74;45.87;100439.91;1796732;79;21758;-54
2022/09/01 13:20:18;;;;;;;1.70;1.10;;;;;;;23.75;45.70;100452.80;1766761;79;21213;-55
2022/09/01 13:23:25;;;;;;;3.47;1.35;;;;;;;23.59;45.51;100439.16;1770457;79;21211;-54
2022/09/01 13:26:31;;;;;;;2.00;1.32;;;;;;;23.52;45.37;100444.65;1763394;80;21199;-56
2022/09/01 13:29:38;;;;;;;2.50;1.15;;;;;;;23.49;45.23;100446.57;1722979;82;21202;-56
2022/09/01 13:32:55;;;;;;;3.22;1.25;;;;;;;23.42;45.12;100441.73;1728943;82;21835;-54
2022/09/01 13:36:05;;;;;;;1.45;1.00;;;;;;;23.37;45.04;100439.69;1706241;83;21763;-56
2022/09/01 13:39:34;;;;;;;2.05;1.10;;;;;;;23.30;44.91;100446.58;1707856;82;21672;-56
2022/09/01 13:42:40;;;;;;;4.50;1.17;;;;;;;23.12;44.81;100451.86;1705455;82;21278;-53
2022/09/01 13:45:49;;;;;;;3.00;1.10;;;;;;;23.01;44.76;100444.97;1761252;80;21238;-53
2022/09/01 13:48:58;;;;;;;3.30;1.10;;;;;;;22.93;44.70;100435.65;1765099;80;21218;-54
2022/09/01 13:52:06;;;;;;;3.45;1.20;;;;;;;22.85;44.61;100431.31;1755067;80;21773;-55
2022/09/01 13:55:14;;;;;;;4.05;1.10;;;;;;;22.82;44.55;100428.17;1752631;80;21715;-55
2022/09/01 13:58:20;;;;;;;4.50;1.47;;;;;;;22.82;44.49;100443.53;1759239;80;21216;-55
2022/09/01 14:01:28;;;;;;;6.53;2.20;;;;;;;22.85;44.39;100438.87;1760204;80;21813;-56
2022/09/01 14:04:36;;;;;;;5.25;2.17;;;;;;;22.92;44.33;100438.98;1727142;81;21711;-56
2022/09/01 14:07:47;;;;;;;2.85;1.65;;;;;;;23.00;44.21;100444.67;1765285;79;21537;-56
2022/09/01 14:10:58;;;;;;;6.22;1.80;;;;;;;23.02;44.09;100450.86;1760851;80;21185;-56
2022/09/01 14:14:05;;;;;;;5.42;1.40;;;;;;;23.02;43.97;100452.27;1753642;80;21202;-57
2022/09/01 14:17:12;;;;;;;5.53;2.20;;;;;;;23.05;43.89;100456.80;1751274;80;21189;-56
2022/09/01 14:20:21;;;;;;;4.60;1.42;;;;;;;23.14;43.76;100461.38;1750105;79;21207;-57
2022/09/01 14:23:28;;;;;;;2.10;1.30;;;;;;;23.14;43.60;100460.84;1786985;80;21637;-57
2022/09/01 14:26:37;;;;;;;4.20;1.87;;;;;;;23.14;43.48;100463.63;1780148;80;21158;-57
2022/09/01 14:29:43;;;;;;;4.72;1.80;;;;;;;23.13;43.39;100463.88;1759890;81;21201;-57
2022/09/01 14:32:53;;;;;;;4.25;1.30;;;;;;;23.13;43.25;100466.67;1759736;81;21208;-56
2022/09/01 14:35:59;;;;;;;3.45;1.67;;;;;;;23.09;43.13;100462.69;1759816;81;21710;-57
2022/09/01 14:39:08;;;;;;;5.37;1.82;;;;;;;22.96;43.06;100472.83;1759439;81;21267;-56
2022/09/01 14:42:14;;;;;;;4.70;1.40;;;;;;;22.78;42.95;100478.11;1761252;81;21463;-56
2022/09/01 14:45:22;;;;;;;2.33;1.27;;;;;;;22.61;42.96;100470.25;1760614;81;21177;-57
2022/09/01 14:48:28;;;;;;;7.10;1.30;;;;;;;22.53;42.95;100478.21;1770959;80;21177;-56
2022/09/01 14:51:37;;;;;;;2.22;1.17;;;;;;;22.46;42.91;100479.73;1781963;79;21205;-56
2022/09/01 14:54:45;;;;;;;3.47;1.50;;;;;;;22.41;42.88;100480.16;1778805;80;21742;-56